Time;durP1;ratioP1;P1;durP2;ratioP2;P2;SDS_P1;SDS_P2;PMS_P1;PMS_P2;Temp;Humidity;BMP_temperature;BMP_pressure;BME280_temperature;BME280_humidity;BME280_pressure;Samples;Min_cycle;Max_cycle;Signal;HPM_P1;HPM_P2
2023/08/08 00:00:43;;;;;;;0.40;0.40;;;;;;;22.99;75.97;98997.81;5052925;28;20197;-65
2023/08/08 00:03:10;;;;;;;0.50;0.50;;;;;;;23.07;76.01;98998.94;5051944;28;20192;-65
2023/08/08 00:05:37;;;;;;;0.53;0.53;;;;;;;23.09;76.37;99002.25;5052943;28;20204;-64
2023/08/08 00:08:04;;;;;;;0.40;0.40;;;;;;;23.09;76.41;99012.69;5052191;28;20672;-65
2023/08/08 00:10:32;;;;;;;0.50;0.50;;;;;;;23.11;77.09;99005.53;5051771;28;20197;-64
2023/08/08 00:12:59;;;;;;;0.57;0.57;;;;;;;23.08;77.55;99006.66;5052272;28;20207;-64
2023/08/08 00:15:25;;;;;;;0.50;0.50;;;;;;;23.05;78.84;99012.13;5052278;28;20650;-64
2023/08/08 00:17:52;;;;;;;0.50;0.50;;;;;;;23.00;79.11;99009.91;5052736;28;20196;-64
2023/08/08 00:20:19;;;;;;;0.50;0.50;;;;;;;22.94;79.10;99002.63;5051754;28;20193;-64
2023/08/08 00:22:46;;;;;;;0.43;0.43;;;;;;;22.99;79.77;99012.69;5052359;28;20225;-64
2023/08/08 00:25:13;;;;;;;0.40;0.40;;;;;;;22.95;80.00;99019.97;5051996;28;20211;-64
2023/08/08 00:27:43;;;;;;;0.50;0.50;;;;;;;22.94;81.06;99012.25;5052167;28;20634;-64
2023/08/08 00:30:11;;;;;;;0.50;0.50;;;;;;;22.87;81.62;99021.59;5051427;28;20216;-64
2023/08/08 00:32:38;;;;;;;0.40;0.40;;;;;;;22.80;82.85;99018.69;5052257;28;20223;-65
2023/08/08 00:35:06;;;;;;;0.47;0.47;;;;;;;22.71;83.60;99024.72;5051578;28;20200;-64
2023/08/08 00:37:32;;;;;;;0.80;0.80;;;;;;;22.70;83.89;99017.81;5049812;28;20223;-65
2023/08/08 00:39:59;;;;;;;0.57;0.57;;;;;;;22.68;83.65;99024.94;5052190;28;20580;-64
2023/08/08 00:42:26;;;;;;;0.30;0.30;;;;;;;22.65;83.99;99019.94;5051760;28;20635;-65
2023/08/08 00:44:54;;;;;;;0.40;0.40;;;;;;;22.66;83.80;99016.41;5052205;28;20201;-64
2023/08/08 00:47:22;;;;;;;0.50;0.50;;;;;;;22.66;83.50;99016.41;5051347;28;20201;-64
2023/08/08 00:49:49;;;;;;;0.40;0.40;;;;;;;22.68;83.21;99018.91;5051842;28;20220;-64
2023/08/08 00:52:16;;;;;;;0.47;0.47;;;;;;;22.66;82.98;99016.41;5051047;28;20262;-64
2023/08/08 00:54:43;;;;;;;0.40;0.40;;;;;;;22.63;83.96;99026.28;5052061;28;20546;-65
2023/08/08 00:57:09;;;;;;;0.40;0.40;;;;;;;22.52;83.48;99008.88;5051263;28;20204;-64
2023/08/08 00:59:36;;;;;;;0.40;0.40;;;;;;;22.60;84.00;99016.09;5051336;28;20196;-65
2023/08/08 01:02:05;;;;;;;0.40;0.40;;;;;;;22.57;84.29;99030.25;5051334;28;20197;-64
2023/08/08 01:04:32;;;;;;;0.30;0.30;;;;;;;22.56;84.12;99025.97;5050025;28;20193;-65
2023/08/08 01:07:07;;;;;;;0.43;0.43;;;;;;;22.56;84.69;99030.34;5051294;28;20201;-64
2023/08/08 01:09:38;;;;;;;0.50;0.50;;;;;;;22.49;83.95;99024.81;5049803;28;20216;-65
2023/08/08 01:12:06;;;;;;;1.13;0.53;;;;;;;22.53;83.65;99036.69;5051044;28;20702;-64
2023/08/08 01:14:35;;;;;;;0.60;0.60;;;;;;;22.36;83.12;99013.75;5050365;28;20208;-64
2023/08/08 01:17:04;;;;;;;0.50;0.50;;;;;;;22.45;83.87;99034.72;5051170;28;20201;-64
2023/08/08 01:19:32;;;;;;;0.40;0.40;;;;;;;22.42;83.32;99034.16;5049708;28;20584;-64
2023/08/08 01:22:07;;;;;;;0.40;0.40;;;;;;;22.44;83.28;99032.25;5051377;28;20596;-65
2023/08/08 01:24:37;;;;;;;0.53;0.53;;;;;;;22.46;82.36;99041.59;5050125;28;20238;-65
2023/08/08 01:27:05;;;;;;;0.50;0.50;;;;;;;22.55;82.52;99045.22;5050548;28;20193;-65
2023/08/08 01:29:32;;;;;;;0.50;0.50;;;;;;;22.61;81.79;99052.53;5050746;28;20209;-65
2023/08/08 01:31:59;;;;;;;0.57;0.57;;;;;;;22.56;81.70;99052.09;5050959;28;20695;-64
2023/08/08 01:34:25;;;;;;;0.30;0.30;;;;;;;22.44;82.61;99047.91;5050795;28;21273;-64
2023/08/08 01:36:56;;;;;;;0.40;0.40;;;;;;;22.34;83.09;99052.25;5050903;28;21242;-64
2023/08/08 01:39:27;;;;;;;0.53;0.53;;;;;;;22.33;83.16;99058.41;5050849;28;20189;-64
2023/08/08 01:41:56;;;;;;;0.50;0.50;;;;;;;22.21;83.42;99062.91;5050668;28;20227;-64
2023/08/08 01:44:25;;;;;;;0.50;0.50;;;;;;;22.14;84.41;99060.91;5050545;28;20240;-64
2023/08/08 01:46:52;;;;;;;0.40;0.40;;;;;;;22.06;84.85;99065.94;5050591;28;20193;-64
2023/08/08 01:49:19;;;;;;;0.37;0.37;;;;;;;22.06;85.16;99073.78;5050777;28;20582;-64
2023/08/08 01:51:46;;;;;;;0.43;0.43;;;;;;;21.98;85.22;99067.41;5050528;28;20207;-64
2023/08/08 01:54:13;;;;;;;0.50;0.50;;;;;;;21.98;85.59;99071.78;5050111;28;20208;-64
2023/08/08 01:56:39;;;;;;;0.40;0.40;;;;;;;21.96;85.88;99079.75;5050694;28;20255;-64
2023/08/08 01:59:08;;;;;;;0.30;0.30;;;;;;;21.90;85.93;99080.28;5050433;28;20675;-64
2023/08/08 02:01:34;;;;;;;0.20;0.20;;;;;;;21.83;86.62;99089.50;5050527;28;20208;-64
2023/08/08 02:04:01;;;;;;;0.40;0.40;;;;;;;21.73;87.20;99072.94;5049917;28;20200;-64
2023/08/08 02:06:28;;;;;;;0.40;0.40;;;;;;;21.77;86.84;99079.56;5050014;28;20265;-64
2023/08/08 02:08:55;;;;;;;0.60;0.60;;;;;;;21.82;87.27;99084.41;5050094;28;20223;-64
2023/08/08 02:11:22;;;;;;;0.40;0.40;;;;;;;21.78;87.19;99085.59;5050116;28;20212;-64
2023/08/08 02:13:49;;;;;;;0.43;0.43;;;;;;;21.69;87.98;99086.34;5050291;28;20299;-64
2023/08/08 02:16:17;;;;;;;0.40;0.40;;;;;;;21.57;87.83;99090.78;5048104;28;20254;-64
2023/08/08 02:18:44;;;;;;;0.30;0.30;;;;;;;21.39;88.56;99089.63;5050366;28;20660;-64
2023/08/08 02:21:11;;;;;;;0.40;0.40;;;;;;;21.34;88.67;99086.56;5050349;28;20553;-64
2023/08/08 02:23:37;;;;;;;0.30;0.30;;;;;;;21.33;89.14;99090.09;5049828;28;20604;-64
2023/08/08 02:26:04;;;;;;;0.40;0.40;;;;;;;21.35;88.78;99089.06;5049632;28;20215;-64
2023/08/08 02:28:31;;;;;;;0.30;0.30;;;;;;;21.34;89.60;99092.59;5047657;28;20199;-64
2023/08/08 02:30:58;;;;;;;0.60;0.60;;;;;;;21.30;90.11;99095.56;5049816;28;20269;-64
2023/08/08 02:33:26;;;;;;;0.33;0.33;;;;;;;21.29;90.43;99096.53;5050190;28;20254;-64
2023/08/08 02:35:53;;;;;;;0.63;0.63;;;;;;;21.26;90.81;99094.97;5050138;28;20229;-64
2023/08/08 02:38:20;;;;;;;0.53;0.53;;;;;;;21.28;91.98;99089.66;5049665;28;21046;-64
2023/08/08 02:40:46;;;;;;;0.43;0.43;;;;;;;21.29;91.70;99101.75;5050078;28;20196;-64
2023/08/08 02:43:13;;;;;;;0.50;0.50;;;;;;;21.34;91.73;99113.47;5049556;28;20196;-64
2023/08/08 02:45:40;;;;;;;0.60;0.60;;;;;;;21.37;92.10;99123.66;5049938;28;20211;-64
2023/08/08 02:48:07;;;;;;;0.40;0.40;;;;;;;21.36;92.52;99118.53;5049520;28;20208;-64
2023/08/08 02:50:35;;;;;;;0.40;0.40;;;;;;;21.39;91.75;99120.91;5049936;28;20273;-64
2023/08/08 02:53:02;;;;;;;0.40;0.40;;;;;;;21.39;92.21;99116.53;5049593;28;20630;-64
2023/08/08 02:55:29;;;;;;;0.60;0.60;;;;;;;21.45;91.85;99128.28;5049331;28;20623;-64
2023/08/08 02:57:55;;;;;;;0.50;0.50;;;;;;;21.21;91.13;99096.28;5050170;28;20566;-64
2023/08/08 03:00:22;;;;;;;0.50;0.50;;;;;;;21.32;91.07;99109.31;5049815;28;20208;-64
2023/08/08 03:02:49;;;;;;;0.50;0.50;;;;;;;21.43;90.98;99127.56;5050032;28;20207;-64
2023/08/08 03:05:16;;;;;;;0.50;0.50;;;;;;;21.43;90.67;99133.59;5049534;28;20204;-64
2023/08/08 03:07:44;;;;;;;0.57;0.57;;;;;;;21.49;90.69;99134.88;5049999;28;20226;-64
2023/08/08 03:10:11;;;;;;;0.40;0.40;;;;;;;21.51;90.18;99137.38;5049601;28;20281;-64
2023/08/08 03:12:39;;;;;;;0.40;0.40;;;;;;;21.42;90.44;99133.75;5049766;28;20693;-64
2023/08/08 03:15:07;;;;;;;0.50;0.50;;;;;;;21.45;90.62;99159.56;5049746;28;20672;-64
2023/08/08 03:17:34;;;;;;;0.33;0.33;;;;;;;21.26;92.01;99164.56;5048424;28;20226;-64
2023/08/08 03:20:05;;;;;;;0.40;0.40;;;;;;;21.25;92.70;99170.72;5049691;28;20203;-64
2023/08/08 03:22:32;;;;;;;0.40;0.40;;;;;;;21.25;92.86;99170.72;5048961;28;20239;-64
2023/08/08 03:25:00;;;;;;;0.50;0.50;;;;;;;21.14;92.96;99178.53;5049489;28;20202;-64
2023/08/08 03:27:27;;;;;;;0.40;0.40;;;;;;;21.08;93.90;99178.97;5050447;28;20199;-64
2023/08/08 03:29:53;;;;;;;0.40;0.40;;;;;;;21.00;94.49;99191.78;5053250;28;20955;-64
2023/08/08 03:32:20;;;;;;;0.30;0.30;;;;;;;20.84;95.04;99203.34;5052843;28;20201;-64
2023/08/08 03:34:47;;;;;;;0.50;0.50;;;;;;;20.76;95.57;99200.50;5053094;28;20207;-64
2023/08/08 03:37:14;;;;;;;0.50;0.50;;;;;;;20.70;96.43;99211.38;5051976;28;20206;-64
2023/08/08 03:39:40;;;;;;;0.50;0.50;;;;;;;20.61;97.38;99221.66;5052476;28;20287;-64
2023/08/08 03:42:09;;;;;;;0.30;0.30;;;;;;;20.60;97.91;99230.41;5052843;28;20206;-64
2023/08/08 03:44:36;;;;;;;0.40;0.40;;;;;;;20.66;99.09;99229.94;5052892;28;20204;-64
2023/08/08 03:47:03;;;;;;;0.50;0.50;;;;;;;20.59;100.00;99226.94;5052717;28;20202;-64
2023/08/08 03:49:29;;;;;;;0.40;0.40;;;;;;;20.56;100.00;99232.38;5052556;28;20227;-64
2023/08/08 03:51:56;;;;;;;0.50;0.50;;;;;;;20.54;100.00;99231.69;5052957;28;20659;-64
2023/08/08 03:54:23;;;;;;;0.47;0.47;;;;;;;20.58;100.00;99248.72;5052799;28;20200;-64
2023/08/08 03:56:50;;;;;;;0.50;0.50;;;;;;;20.49;100.00;99254.63;5052040;28;20205;-64
2023/08/08 03:59:18;;;;;;;0.60;0.60;;;;;;;20.40;100.00;99256.13;5051670;28;20208;-64
2023/08/08 04:01:45;;;;;;;0.50;0.50;;;;;;;20.29;100.00;99257.84;5039394;28;20210;-64
2023/08/08 04:04:11;;;;;;;0.50;0.50;;;;;;;20.12;100.00;99252.97;5050651;28;20611;-64
2023/08/08 04:06:38;;;;;;;0.67;0.40;;;;;;;20.09;100.00;99272.25;5052309;28;20620;-64
2023/08/08 04:09:05;;;;;;;0.60;0.60;;;;;;;20.01;100.00;99273.72;5051742;28;20211;-64
2023/08/08 04:11:32;;;;;;;0.40;0.40;;;;;;;19.89;100.00;99271.06;5052427;28;20255;-64
2023/08/08 04:13:58;;;;;;;0.60;0.60;;;;;;;19.84;100.00;99267.94;5052351;28;20197;-64
2023/08/08 04:16:26;;;;;;;0.50;0.50;;;;;;;19.72;100.00;99273.16;5052533;28;20226;-63
2023/08/08 04:18:53;;;;;;;0.40;0.40;;;;;;;19.50;100.00;99268.63;5052390;28;20209;-64
2023/08/08 04:21:20;;;;;;;0.43;0.43;;;;;;;19.40;100.00;99275.38;5051703;28;20197;-64
2023/08/08 04:23:47;;;;;;;0.50;0.50;;;;;;;19.32;100.00;99285.44;5052559;28;20687;-64
2023/08/08 04:26:14;;;;;;;0.53;0.53;;;;;;;19.34;100.00;99291.38;5051561;28;20200;-64
2023/08/08 04:28:41;;;;;;;0.43;0.43;;;;;;;19.20;100.00;99305.28;5052399;28;20690;-63
2023/08/08 04:31:08;;;;;;;0.40;0.40;;;;;;;19.09;100.00;99314.75;5051548;28;20224;-63
2023/08/08 04:33:36;;;;;;;0.50;0.50;;;;;;;19.04;100.00;99312.44;5052163;28;20194;-63
2023/08/08 04:36:03;;;;;;;0.90;0.90;;;;;;;19.06;100.00;99305.38;5051085;28;20212;-63
2023/08/08 04:38:30;;;;;;;0.40;0.40;;;;;;;19.05;100.00;99310.66;5051599;28;20201;-63
2023/08/08 04:40:56;;;;;;;0.47;0.47;;;;;;;19.00;100.00;99313.56;5051282;28;21524;-63
2023/08/08 04:43:23;;;;;;;0.50;0.50;;;;;;;19.00;100.00;99315.34;5051585;28;20703;-64
2023/08/08 04:45:50;;;;;;;0.60;0.60;;;;;;;19.03;100.00;99317.75;5051320;28;20207;-63
2023/08/08 04:48:17;;;;;;;0.40;0.40;;;;;;;19.04;100.00;99316.78;5051307;28;20205;-64
2023/08/08 04:50:47;;;;;;;0.53;0.53;;;;;;;18.99;100.00;99331.88;5051041;28;20220;-64
2023/08/08 04:53:13;;;;;;;0.50;0.50;;;;;;;18.94;100.00;99339.09;5051840;28;20258;-64
2023/08/08 04:55:40;;;;;;;0.40;0.40;;;;;;;18.97;100.00;99349.31;5049541;28;20210;-64
2023/08/08 04:58:07;;;;;;;0.40;0.40;;;;;;;18.83;100.00;99340.66;5049154;28;20702;-64
2023/08/08 05:00:35;;;;;;;0.60;0.60;;;;;;;19.00;100.00;99356.91;5050828;28;20692;-65
2023/08/08 05:03:02;;;;;;;0.37;0.37;;;;;;;19.03;100.00;99364.50;5050281;28;21116;-63
2023/08/08 05:05:28;;;;;;;0.50;0.50;;;;;;;19.09;100.00;99366.72;5050269;28;20211;-59
2023/08/08 05:07:56;;;;;;;0.50;0.50;;;;;;;19.11;100.00;99372.63;5047625;28;20224;-59
2023/08/08 05:10:23;;;;;;;0.50;0.50;;;;;;;19.19;100.00;99384.19;5048859;28;20665;-60
2023/08/08 05:12:50;;;;;;;0.60;0.60;;;;;;;19.24;100.00;99387.31;5049532;28;20209;-61
2023/08/08 05:15:17;;;;;;;0.60;0.60;;;;;;;19.33;100.00;99385.88;5050341;28;20216;-60
2023/08/08 05:17:44;;;;;;;0.40;0.40;;;;;;;19.38;100.00;99384.66;5049548;28;20208;-59
2023/08/08 05:20:12;;;;;;;0.40;0.40;;;;;;;19.50;100.00;99388.22;5050469;28;21965;-60
2023/08/08 05:22:38;;;;;;;0.63;0.63;;;;;;;19.59;100.00;99397.16;5049801;28;20234;-60
2023/08/08 05:25:07;;;;;;;0.60;0.60;;;;;;;19.69;100.00;99399.06;5049193;28;20207;-60
2023/08/08 05:27:34;;;;;;;0.47;0.47;;;;;;;19.71;100.00;99407.56;5050042;28;20204;-60
2023/08/08 05:30:01;;;;;;;0.40;0.40;;;;;;;19.71;100.00;99415.38;5050731;28;20621;-60
2023/08/08 05:32:28;;;;;;;0.50;0.50;;;;;;;19.70;100.00;99416.34;5049211;28;20203;-61
2023/08/08 05:34:56;;;;;;;0.50;0.50;;;;;;;19.65;100.00;99415.78;5048065;28;20295;-61
2023/08/08 05:37:23;;;;;;;0.50;0.50;;;;;;;19.55;100.00;99422.53;5049179;28;20205;-64
2023/08/08 05:39:50;;;;;;;0.50;0.50;;;;;;;19.44;100.00;99438.03;5049443;28;20217;-64
2023/08/08 05:42:18;;;;;;;0.50;0.50;;;;;;;19.30;100.00;99432.88;5049284;28;20207;-66
2023/08/08 05:44:45;;;;;;;0.40;0.40;;;;;;;19.31;100.00;99442.34;5049519;28;20235;-66
2023/08/08 05:47:12;;;;;;;0.30;0.30;;;;;;;19.19;100.00;99435.34;5049664;28;20279;-63
2023/08/08 05:49:41;;;;;;;0.50;0.50;;;;;;;19.15;100.00;99433.88;5047982;28;21099;-65
2023/08/08 05:52:08;;;;;;;0.50;0.50;;;;;;;19.07;100.00;99446.50;5048693;28;20656;-65
2023/08/08 05:54:35;;;;;;;0.50;0.50;;;;;;;18.96;100.00;99454.16;5049360;28;20209;-65
2023/08/08 05:57:04;;;;;;;0.50;0.50;;;;;;;18.81;100.00;99451.59;5049324;28;20220;-63
2023/08/08 05:59:32;;;;;;;0.33;0.33;;;;;;;18.78;100.00;99450.94;5049592;28;20212;-63
2023/08/08 06:01:59;;;;;;;0.60;0.60;;;;;;;18.75;100.00;99446.78;5049188;28;20208;-64
2023/08/08 06:04:25;;;;;;;0.70;0.70;;;;;;;18.77;100.00;99444.91;5048686;28;20777;-65
2023/08/08 06:06:52;;;;;;;0.50;0.50;;;;;;;18.72;100.00;99441.78;5048446;28;20198;-66
2023/08/08 06:09:19;;;;;;;0.60;0.60;;;;;;;18.73;100.00;99438.28;5047402;28;20554;-65
2023/08/08 06:11:46;;;;;;;0.50;0.50;;;;;;;18.70;100.00;99438.47;5048830;28;20695;-66
2023/08/08 06:14:13;;;;;;;0.50;0.50;;;;;;;18.72;100.00;99436.59;5048325;28;20267;-65
2023/08/08 06:16:41;;;;;;;0.57;0.57;;;;;;;18.76;100.00;99438.09;5048637;28;20200;-67
2023/08/08 06:19:08;;;;;;;0.50;0.50;;;;;;;18.79;100.00;99442.25;5047490;28;20204;-65
2023/08/08 06:21:35;;;;;;;0.40;0.40;;;;;;;18.75;100.00;99443.34;5047645;28;20198;-65
2023/08/08 06:24:02;;;;;;;0.40;0.40;;;;;;;18.75;100.00;99440.75;5048133;28;20606;-65
2023/08/08 06:26:29;;;;;;;0.60;0.60;;;;;;;18.83;100.00;99441.13;5048214;28;20204;-65
2023/08/08 06:28:55;;;;;;;0.50;0.50;;;;;;;18.78;100.00;99440.56;5048054;28;20204;-65
2023/08/08 06:31:22;;;;;;;0.70;0.70;;;;;;;18.85;100.00;99450.47;5049386;28;20219;-66
2023/08/08 06:33:51;;;;;;;0.60;0.60;;;;;;;18.93;100.00;99454.38;5049699;28;20201;-65
2023/08/08 06:36:17;;;;;;;0.40;0.40;;;;;;;18.95;100.00;99453.34;5048349;28;20709;-66
2023/08/08 06:38:44;;;;;;;0.47;0.47;;;;;;;18.93;100.00;99449.16;5047510;28;20553;-66
2023/08/08 06:41:11;;;;;;;0.60;0.60;;;;;;;19.09;100.00;99452.47;5045179;28;20207;-65
2023/08/08 06:43:38;;;;;;;0.40;0.40;;;;;;;19.16;100.00;99453.75;5045380;28;20204;-67
2023/08/08 06:46:04;;;;;;;0.80;0.80;;;;;;;19.31;100.00;99450.97;5045297;28;20646;-66
2023/08/08 06:48:31;;;;;;;0.57;0.57;;;;;;;19.39;100.00;99448.69;5048620;28;20205;-67
2023/08/08 06:50:59;;;;;;;0.50;0.50;;;;;;;19.45;100.00;99447.47;5049219;28;20217;-66
2023/08/08 06:53:27;;;;;;;0.50;0.50;;;;;;;19.59;100.00;99439.63;5048629;28;20209;-66
2023/08/08 06:55:53;;;;;;;0.40;0.40;;;;;;;19.88;100.00;99442.88;5049293;28;20288;-66
2023/08/08 06:58:20;;;;;;;0.70;0.70;;;;;;;20.15;100.00;99442.78;5048308;28;20210;-66
2023/08/08 07:00:47;;;;;;;0.40;0.40;;;;;;;20.39;100.00;99446.31;5050126;28;20207;-66
2023/08/08 07:03:14;;;;;;;0.50;0.50;;;;;;;20.40;100.00;99447.97;5052430;28;20219;-66
2023/08/08 07:05:40;;;;;;;0.40;0.40;;;;;;;20.46;100.00;99451.91;5053405;28;20203;-67
2023/08/08 07:08:09;;;;;;;0.50;0.50;;;;;;;20.46;100.00;99457.97;5052508;28;20600;-66
2023/08/08 07:10:36;;;;;;;0.50;0.50;;;;;;;20.43;100.00;99458.19;5052358;28;20245;-66
2023/08/08 07:13:02;;;;;;;0.60;0.60;;;;;;;20.39;100.00;99456.72;5053056;28;20702;-67
2023/08/08 07:15:30;;;;;;;0.40;0.40;;;;;;;20.37;100.00;99437.78;5052421;28;20203;-66
2023/08/08 07:17:57;;;;;;;0.50;0.50;;;;;;;20.50;100.00;99442.97;5051793;28;20207;-66
2023/08/08 07:20:24;;;;;;;0.50;0.50;;;;;;;20.60;100.00;99444.81;5053058;28;20214;-66
2023/08/08 07:22:50;;;;;;;0.43;0.43;;;;;;;20.71;100.00;99447.47;5047771;28;20227;-66
2023/08/08 07:25:19;;;;;;;0.43;0.43;;;;;;;20.69;100.00;99451.13;5052138;28;20554;-67
2023/08/08 07:27:45;;;;;;;0.50;0.50;;;;;;;20.76;100.00;99458.41;5051436;28;20717;-67
2023/08/08 07:30:13;;;;;;;0.40;0.40;;;;;;;21.16;100.00;99456.44;5051395;28;20219;-66
2023/08/08 07:32:40;;;;;;;0.63;0.63;;;;;;;21.42;100.00;99449.31;5052314;28;20664;-70
2023/08/08 07:35:08;;;;;;;0.47;0.47;;;;;;;21.59;100.00;99461.91;5052198;28;20200;-66
2023/08/08 07:37:35;;;;;;;0.43;0.43;;;;;;;21.58;100.00;99465.50;5051502;28;20203;-65
2023/08/08 07:40:03;;;;;;;0.50;0.50;;;;;;;21.41;100.00;99463.28;5051528;28;20215;-66
2023/08/08 07:42:31;;;;;;;0.50;0.50;;;;;;;21.29;100.00;99462.41;5051683;28;20193;-67
2023/08/08 07:44:58;;;;;;;0.60;0.60;;;;;;;21.35;100.00;99471.56;5050770;28;20204;-67
2023/08/08 07:47:25;;;;;;;0.40;0.40;;;;;;;21.45;100.00;99475.97;5051980;28;20212;-67
2023/08/08 07:49:52;;;;;;;0.50;0.50;;;;;;;21.40;100.00;99472.06;5051182;28;20204;-67
2023/08/08 07:52:18;;;;;;;0.60;0.60;;;;;;;21.34;100.00;99477.72;5050332;28;20227;-67
2023/08/08 07:54:45;;;;;;;0.40;0.40;;;;;;;21.39;100.00;99486.84;5052069;28;20218;-67
2023/08/08 07:57:12;;;;;;;0.40;0.40;;;;;;;21.39;100.00;99486.03;5051684;28;20208;-67
2023/08/08 07:59:40;;;;;;;0.53;0.53;;;;;;;21.45;100.00;99481.19;5052262;28;20204;-67
2023/08/08 08:02:07;;;;;;;0.40;0.40;;;;;;;21.45;100.00;99491.63;5050692;28;20211;-67
2023/08/08 08:04:34;;;;;;;0.40;0.40;;;;;;;21.39;100.00;99466.00;5051263;28;20295;-67
2023/08/08 08:07:02;;;;;;;0.47;0.47;;;;;;;21.52;100.00;99481.56;5050339;28;20682;-67
2023/08/08 08:09:28;;;;;;;0.50;0.50;;;;;;;21.60;100.00;99479.25;5050878;28;20200;-67
2023/08/08 08:11:55;;;;;;;0.50;0.50;;;;;;;21.65;100.00;99482.34;5052784;28;20217;-66
2023/08/08 08:14:24;;;;;;;0.60;0.60;;;;;;;21.62;100.00;99479.13;5051458;28;20201;-67
2023/08/08 08:16:52;;;;;;;0.37;0.37;;;;;;;21.67;100.00;99483.06;5052546;28;20683;-67
2023/08/08 08:19:19;;;;;;;0.60;0.60;;;;;;;21.64;99.81;99470.25;5049863;28;20204;-67
2023/08/08 08:21:45;;;;;;;0.50;0.50;;;;;;;21.65;97.66;99478.91;5050093;28;20225;-67
2023/08/08 08:24:15;;;;;;;4.47;0.53;;;;;;;21.63;100.00;99481.63;5051775;28;20699;-67
2023/08/08 08:26:41;;;;;;;0.40;0.40;;;;;;;21.74;99.34;99486.91;5050003;28;20228;-67
2023/08/08 08:29:08;;;;;;;0.40;0.40;;;;;;;21.90;96.85;99482.22;5051783;28;20607;-67
2023/08/08 08:31:37;;;;;;;0.50;0.50;;;;;;;22.16;95.70;99472.41;5049617;28;20232;-67
2023/08/08 08:34:05;;;;;;;0.50;0.50;;;;;;;22.56;100.00;99470.13;5050966;28;20200;-67
2023/08/08 08:36:32;;;;;;;0.63;0.63;;;;;;;22.83;91.92;99465.41;5049437;28;20228;-67
2023/08/08 08:38:58;;;;;;;0.50;0.50;;;;;;;23.04;91.75;99464.66;5050993;28;20208;-67
2023/08/08 08:41:28;;;;;;;0.50;0.50;;;;;;;23.26;93.31;99462.78;5049595;28;20668;-67
2023/08/08 08:43:55;;;;;;;0.50;0.50;;;;;;;23.42;92.74;99459.78;5048506;28;20208;-67
2023/08/08 08:46:26;;;;;;;0.50;0.50;;;;;;;23.65;88.45;99458.69;5047638;28;20676;-67
2023/08/08 08:48:56;;;;;;;0.40;0.40;;;;;;;23.84;86.08;99456.22;5049986;28;20302;-66
2023/08/08 08:51:24;;;;;;;0.40;0.40;;;;;;;23.85;82.32;99454.41;5049249;28;20311;-67
2023/08/08 08:53:52;;;;;;;0.37;0.37;;;;;;;24.17;86.79;99456.97;5047738;28;20223;-66
2023/08/08 08:56:20;;;;;;;0.40;0.40;;;;;;;24.33;81.11;99446.84;5050123;28;20209;-67
2023/08/08 08:58:47;;;;;;;0.40;0.40;;;;;;;24.40;80.48;99450.56;5048793;28;20262;-66
2023/08/08 09:01:14;;;;;;;0.53;0.40;;;;;;;24.63;80.52;99448.59;5047204;28;20203;-68
2023/08/08 09:03:44;;;;;;;0.50;0.50;;;;;;;24.97;80.02;99442.91;5050389;28;20216;-67
2023/08/08 09:06:11;;;;;;;0.90;0.90;;;;;;;25.25;75.57;99450.94;5050606;28;20196;-67
2023/08/08 09:08:40;;;;;;;0.50;0.50;;;;;;;25.52;76.56;99449.31;5050460;28;20211;-66
2023/08/08 09:11:06;;;;;;;4.03;0.40;;;;;;;25.65;72.74;99449.03;5050615;28;20232;-67
2023/08/08 09:13:38;;;;;;;0.40;0.40;;;;;;;25.65;71.16;99454.28;5049275;28;21712;-67
2023/08/08 09:16:06;;;;;;;0.33;0.33;;;;;;;25.75;72.28;99455.06;5048204;28;20304;-66
2023/08/08 09:18:33;;;;;;;0.30;0.30;;;;;;;25.86;70.57;99456.72;5048008;28;20211;-67
2023/08/08 09:21:00;;;;;;;0.30;0.30;;;;;;;26.08;70.77;99449.31;5048696;28;20665;-67
2023/08/08 09:23:27;;;;;;;0.40;0.40;;;;;;;26.31;74.52;99441.94;5049508;28;20216;-67
2023/08/08 09:25:55;;;;;;;0.60;0.40;;;;;;;26.45;71.95;99449.34;5049889;28;20204;-67
2023/08/08 09:28:22;;;;;;;0.43;0.40;;;;;;;26.57;68.88;99449.97;5047997;28;20205;-67
2023/08/08 09:30:49;;;;;;;0.67;0.67;;;;;;;26.73;71.32;99437.00;5050817;28;20200;-67
2023/08/08 09:33:16;;;;;;;0.40;0.40;;;;;;;26.88;64.79;99434.75;5050480;28;20239;-67
2023/08/08 09:35:42;;;;;;;0.40;0.40;;;;;;;27.05;66.83;99432.13;5050734;28;20626;-67
2023/08/08 09:38:09;;;;;;;0.40;0.40;;;;;;;27.01;70.13;99436.03;5043580;28;20259;-68
2023/08/08 09:40:36;;;;;;;0.40;0.40;;;;;;;26.94;68.75;99435.00;5047204;28;20208;-67
2023/08/08 09:43:04;;;;;;;0.40;0.40;;;;;;;26.86;68.22;99440.16;5047076;28;20193;-67
2023/08/08 09:45:37;;;;;;;0.30;0.30;;;;;;;26.90;67.55;99432.78;5048460;28;20205;-66
2023/08/08 09:48:06;;;;;;;0.43;0.43;;;;;;;27.04;68.03;99425.19;5048978;28;20650;-69
2023/08/08 09:50:34;;;;;;;0.30;0.30;;;;;;;27.01;62.81;99425.50;5049163;28;20292;-67
2023/08/08 09:53:03;;;;;;;0.27;0.27;;;;;;;27.18;62.10;99425.66;5045383;28;20217;-67
2023/08/08 09:55:30;;;;;;;0.40;0.40;;;;;;;27.21;63.98;99423.53;5046905;28;20640;-66
2023/08/08 09:57:58;;;;;;;0.40;0.40;;;;;;;27.41;62.09;99425.03;5048424;28;20233;-66
2023/08/08 10:00:27;;;;;;;0.30;0.30;;;;;;;27.41;60.20;99418.94;5047858;28;20201;-66
2023/08/08 10:02:55;;;;;;;0.30;0.30;;;;;;;27.47;62.83;99426.25;5047580;28;20242;-67
2023/08/08 10:05:22;;;;;;;0.40;0.40;;;;;;;27.47;59.08;99415.72;5049101;28;20695;-67
2023/08/08 10:07:49;;;;;;;0.30;0.30;;;;;;;27.37;58.31;99420.22;5049068;28;20201;-66
2023/08/08 10:10:18;;;;;;;0.50;0.50;;;;;;;27.29;58.10;99418.38;5045221;28;20680;-66
2023/08/08 10:12:46;;;;;;;0.20;0.20;;;;;;;27.42;62.91;99423.25;5044736;28;20638;-66
2023/08/08 10:15:12;;;;;;;0.33;0.33;;;;;;;27.50;61.45;99420.69;5047797;28;20635;-67
2023/08/08 10:17:42;;;;;;;0.30;0.30;;;;;;;27.50;60.38;99420.69;5048503;28;20207;-67
2023/08/08 10:20:11;;;;;;;0.40;0.40;;;;;;;27.65;63.00;99424.44;5048985;28;20208;-68
2023/08/08 10:22:42;;;;;;;0.30;0.30;;;;;;;27.66;55.26;99426.06;5046315;28;20338;-66
2023/08/08 10:25:09;;;;;;;0.30;0.30;;;;;;;27.55;55.19;99423.69;5048697;28;20209;-67
2023/08/08 10:27:39;;;;;;;0.63;0.40;;;;;;;27.51;54.42;99427.63;5049267;28;20561;-66
2023/08/08 10:30:09;;;;;;;0.40;0.40;;;;;;;27.55;58.03;99426.34;5049210;28;20218;-66
2023/08/08 10:32:42;;;;;;;0.40;0.40;;;;;;;27.61;55.37;99425.72;5048586;28;20716;-66
2023/08/08 10:35:10;;;;;;;0.30;0.30;;;;;;;27.44;55.57;99421.31;5049403;28;20668;-67
2023/08/08 10:37:38;;;;;;;0.60;0.60;;;;;;;27.42;54.20;99420.59;5047737;28;20197;-66
2023/08/08 10:40:06;;;;;;;0.40;0.40;;;;;;;27.35;55.76;99411.66;5048092;28;20240;-70
2023/08/08 10:42:41;;;;;;;0.40;0.40;;;;;;;27.14;54.23;99415.41;5048180;28;20229;-66
2023/08/08 10:45:11;;;;;;;0.40;0.40;;;;;;;27.02;55.58;99410.53;5047272;28;20207;-69
2023/08/08 10:47:38;;;;;;;0.30;0.30;;;;;;;27.18;55.59;99408.06;5048026;28;20197;-65
2023/08/08 10:50:09;;;;;;;0.30;0.30;;;;;;;27.29;57.92;99396.47;5049486;28;20213;-67
2023/08/08 10:52:39;;;;;;;0.30;0.30;;;;;;;27.53;55.30;99410.69;5047484;28;20227;-66
2023/08/08 10:55:07;;;;;;;0.38;0.38;;;;;;;27.69;57.24;99412.59;5046280;28;20451;-67
2023/08/08 10:57:34;;;;;;;0.40;0.40;;;;;;;27.69;55.29;99409.97;5049408;28;20196;-68
2023/08/08 11:00:19;;;;;;;0.40;0.40;;;;;;;27.33;52.69;99409.19;5048803;28;20197;-67
2023/08/08 11:02:46;;;;;;;0.40;0.40;;;;;;;27.37;54.34;99405.25;5049593;28;20205;-67
2023/08/08 11:05:15;;;;;;;0.40;0.40;;;;;;;27.38;53.14;99409.56;5048765;28;20196;-67
2023/08/08 11:07:43;;;;;;;0.37;0.37;;;;;;;27.33;54.91;99392.56;5048389;28;20212;-67
2023/08/08 11:10:11;;;;;;;0.40;0.40;;;;;;;27.42;55.07;99396.91;5048878;28;20295;-67
2023/08/08 11:12:37;;;;;;;0.40;0.40;;;;;;;27.38;53.56;99400.81;5049661;28;20220;-67
2023/08/08 11:15:05;;;;;;;0.40;0.40;;;;;;;27.41;54.01;99401.34;5048410;28;20205;-67
2023/08/08 11:17:33;;;;;;;0.30;0.30;;;;;;;27.49;56.31;99398.81;5044785;28;20200;-67
2023/08/08 11:20:01;;;;;;;0.30;0.30;;;;;;;27.39;53.44;99381.41;5042410;28;20699;-67
2023/08/08 11:22:29;;;;;;;0.30;0.30;;;;;;;27.50;53.87;99389.09;5049159;28;20570;-67
2023/08/08 11:25:02;;;;;;;0.40;0.40;;;;;;;27.49;53.57;99392.72;5048307;28;20200;-67
2023/08/08 11:27:29;;;;;;;0.40;0.40;;;;;;;27.56;58.81;99389.28;5045654;28;20684;-67
2023/08/08 11:29:57;;;;;;;0.30;0.30;;;;;;;27.58;54.76;99387.34;5049907;28;20208;-67